Terminal Aerodrome Forecast
Issued by NWS Kansas City/Pleasant Hill, MO

Home | Current Version | Previous Version | Text Only | Print | Product List | Glossary On
Versions: 1 2 3 4 5 6 7 8 9 10 11 12 13 14 15
000
FTUS43 KEAX 251120
TAFMCI
TAF
KMCI 251120Z 2512/2612 33005KT P6SM VCSH OVC070
     FM251400 01010KT 6SM -RA OVC030
     FM251700 01010KT 4SM -RA OVC015
     FM252100 36006KT P6SM VCSH OVC020
     FM252300 34004KT P6SM OVC035
     FM260600 34005KT P6SM FEW150=

USA.gov is the U.S. government's official web portal to all federal, state and local government web resources and services.